Time;durP1;ratioP1;P1;durP2;ratioP2;P2;SDS_P1;SDS_P2;PMS_P1;PMS_P2;Temp;Humidity;BMP_temperature;BMP_pressure;BME280_temperature;BME280_humidity;BME280_pressure;Samples;Min_cycle;Max_cycle;Signal;HPM_P1;HPM_P2
2022/07/17 00:01:53;;;;;;;137.70;130.65;;;;;;;;;;5043056;28;20028;-68
2022/07/17 00:04:18;;;;;;;149.23;141.77;;;;;;;;;;5042453;28;20048;-67
2022/07/17 00:06:44;;;;;;;130.77;124.18;;;;;;;;;;5043408;28;20436;-67
2022/07/17 00:09:09;;;;;;;135.32;128.52;;;;;;;;;;5043816;28;20033;-67
2022/07/17 00:11:35;;;;;;;81.60;77.45;;;;;;;;;;5043816;28;20106;-68
2022/07/17 00:14:00;;;;;;;80.97;76.75;;;;;;;;;;5042567;28;20106;-68
2022/07/17 00:16:25;;;;;;;74.88;71.07;;;;;;;;;;5043853;28;20140;-67
2022/07/17 00:18:51;;;;;;;74.43;70.65;;;;;;;;;;5043573;28;20056;-68
2022/07/17 00:21:16;;;;;;;59.95;56.88;;;;;;;;;;5043646;28;20052;-67
2022/07/17 00:23:42;;;;;;;46.95;44.55;;;;;;;;;;5043269;28;20086;-67
2022/07/17 00:26:07;;;;;;;39.97;37.88;;;;;;;;;;5043670;28;20056;-67
2022/07/17 00:28:33;;;;;;;46.47;44.08;;;;;;;;;;5042490;28;20108;-68
2022/07/17 00:30:58;;;;;;;41.40;39.13;;;;;;;;;;5042309;28;20039;-68
2022/07/17 00:33:23;;;;;;;81.35;77.28;;;;;;;;;;5043483;28;20486;-65
2022/07/17 00:35:49;;;;;;;104.15;98.97;;;;;;;;;;5042284;28;20035;-63
2022/07/17 00:38:15;;;;;;;117.18;111.28;;;;;;;;;;5043558;28;20096;-64
2022/07/17 00:40:40;;;;;;;139.13;132.15;;;;;;;;;;5043890;28;20470;-63
2022/07/17 00:43:06;;;;;;;131.32;124.72;;;;;;;;;;5043751;28;20024;-63
2022/07/17 00:45:31;;;;;;;136.10;129.18;;;;;;;;;;5042611;28;20530;-62
2022/07/17 00:48:02;;;;;;;130.13;123.60;;;;;;;;;;5042995;28;20025;-63
2022/07/17 00:50:54;;;;;;;152.35;144.70;;;;;;;;;;5043527;28;20036;-62
2022/07/17 00:53:21;;;;;;;144.90;137.65;;;;;;;;;;5039735;28;20490;-63
2022/07/17 00:55:47;;;;;;;137.57;130.70;;;;;;;;;;5041461;28;20116;-64
2022/07/17 00:58:24;;;;;;;131.70;125.13;;;;;;;;;;5042492;28;20552;-63
2022/07/17 01:00:51;;;;;;;193.00;183.40;;;;;;;;;;5042871;28;20122;-64
2022/07/17 01:03:17;;;;;;;209.75;199.35;;;;;;;;;;5043192;28;20035;-63
2022/07/17 01:05:43;;;;;;;186.73;177.45;;;;;;;;;;5041433;28;20041;-64
2022/07/17 01:08:09;;;;;;;190.50;181.07;;;;;;;;;;5042486;28;20098;-63
2022/07/17 01:10:34;;;;;;;172.38;163.82;;;;;;;;;;5043393;28;20025;-64
2022/07/17 01:13:01;;;;;;;137.73;130.85;;;;;;;;;;5043121;28;20029;-64
2022/07/17 01:15:26;;;;;;;154.85;147.10;;;;;;;;;;5042710;28;20641;-64
2022/07/17 01:17:52;;;;;;;120.00;114.05;;;;;;;;;;5044107;28;20051;-64
2022/07/17 01:20:17;;;;;;;154.50;146.82;;;;;;;;;;5043076;28;20025;-64
2022/07/17 01:22:45;;;;;;;65.20;61.92;;;;;;;;;;5040552;28;20057;-63
2022/07/17 01:25:12;;;;;;;92.40;87.80;;;;;;;;;;5043708;28;20096;-64
2022/07/17 01:27:37;;;;;;;62.28;59.17;;;;;;;;;;5043351;28;20090;-63
2022/07/17 01:30:04;;;;;;;84.88;80.63;;;;;;;;;;5041562;28;20463;-65
2022/07/17 01:32:38;;;;;;;101.80;96.72;;;;;;;;;;5042795;28;20080;-65
2022/07/17 01:35:04;;;;;;;76.00;72.22;;;;;;;;;;5042492;28;20025;-65
2022/07/17 01:37:29;;;;;;;97.80;92.93;;;;;;;;;;5042795;28;20079;-65
2022/07/17 01:39:56;;;;;;;154.02;146.43;;;;;;;;;;5042030;28;20425;-65
2022/07/17 01:42:23;;;;;;;122.97;116.90;;;;;;;;;;5047119;28;20545;-65
2022/07/17 01:44:49;;;;;;;133.93;127.20;;;;;;;;;;5046106;28;20717;-66
2022/07/17 01:47:16;;;;;;;147.05;139.82;;;;;;;;;;5045886;28;20441;-65
2022/07/17 01:49:48;;;;;;;200.38;190.52;;;;;;;;;;5046760;28;20033;-65
2022/07/17 01:52:14;;;;;;;245.10;233.00;;;;;;;;;;5045624;28;20577;-65
2022/07/17 01:54:40;;;;;;;205.02;194.55;;;;;;;;;;5046711;28;20068;-65
2022/07/17 01:57:05;;;;;;;174.60;165.95;;;;;;;;;;5045591;28;20649;-65
2022/07/17 01:59:31;;;;;;;257.73;244.90;;;;;;;;;;5046296;28;20068;-65
2022/07/17 02:01:56;;;;;;;234.68;223.00;;;;;;;;;;5045763;28;20052;-65
2022/07/17 02:04:22;;;;;;;252.07;239.52;;;;;;;;;;5046409;28;20481;-66
2022/07/17 02:06:47;;;;;;;256.95;244.10;;;;;;;;;;5046737;28;20035;-66
2022/07/17 02:09:12;;;;;;;245.10;232.75;;;;;;;;;;5046729;28;20100;-66
2022/07/17 02:11:38;;;;;;;199.10;189.07;;;;;;;;;;5044892;28;20115;-66
2022/07/17 02:14:03;;;;;;;176.23;167.48;;;;;;;;;;5044261;28;20463;-66
2022/07/17 02:16:28;;;;;;;228.23;216.88;;;;;;;;;;5045595;28;20040;-66
2022/07/17 02:18:54;;;;;;;251.13;238.60;;;;;;;;;;5046011;28;20037;-68
2022/07/17 02:21:19;;;;;;;210.73;200.27;;;;;;;;;;5046456;28;20109;-66
2022/07/17 02:23:44;;;;;;;155.60;147.82;;;;;;;;;;5046603;28;20083;-66
2022/07/17 02:26:10;;;;;;;183.40;174.18;;;;;;;;;;5046115;28;20029;-67
2022/07/17 02:28:35;;;;;;;139.50;132.45;;;;;;;;;;5045188;28;20103;-66
2022/07/17 02:31:01;;;;;;;162.90;154.73;;;;;;;;;;5045912;28;20497;-66
2022/07/17 02:33:26;;;;;;;220.75;209.75;;;;;;;;;;5045307;28;20064;-66
2022/07/17 02:35:51;;;;;;;218.35;207.50;;;;;;;;;;5044982;28;20033;-66
2022/07/17 02:38:17;;;;;;;179.98;170.90;;;;;;;;;;5044222;28;20078;-66
2022/07/17 02:40:42;;;;;;;136.60;129.75;;;;;;;;;;5045773;28;20124;-66
2022/07/17 02:43:08;;;;;;;203.50;193.35;;;;;;;;;;5046017;28;20020;-66
2022/07/17 02:45:33;;;;;;;152.05;144.35;;;;;;;;;;5045639;28;20955;-67
2022/07/17 02:47:58;;;;;;;178.32;169.48;;;;;;;;;;5045260;28;20025;-67
2022/07/17 02:50:24;;;;;;;104.97;99.65;;;;;;;;;;5044516;28;20529;-67
2022/07/17 02:52:49;;;;;;;108.93;103.45;;;;;;;;;;5042580;28;20745;-67
2022/07/17 02:55:16;;;;;;;63.47;60.22;;;;;;;;;;5044234;28;20657;-67
2022/07/17 02:57:42;;;;;;;68.63;65.10;;;;;;;;;;5045469;28;20024;-67
2022/07/17 03:00:11;;;;;;;80.22;76.18;;;;;;;;;;5045408;28;20588;-67
2022/07/17 03:02:37;;;;;;;96.20;91.05;;;;;;;;;;5045177;28;20110;-67
2022/07/17 03:05:04;;;;;;;102.55;97.43;;;;;;;;;;5045067;28;20043;-67
2022/07/17 03:07:29;;;;;;;123.93;117.75;;;;;;;;;;5045284;28;20032;-67
2022/07/17 03:09:55;;;;;;;127.85;121.53;;;;;;;;;;5044853;28;20035;-67
2022/07/17 03:12:20;;;;;;;113.00;107.30;;;;;;;;;;5045136;28;20044;-67
2022/07/17 03:14:45;;;;;;;133.43;126.80;;;;;;;;;;5043599;28;20474;-67
2022/07/17 03:17:10;;;;;;;126.07;119.75;;;;;;;;;;5045370;28;20051;-68
2022/07/17 03:19:36;;;;;;;131.05;124.53;;;;;;;;;;5045242;28;20506;-68
2022/07/17 03:22:01;;;;;;;122.30;116.28;;;;;;;;;;5044983;28;20025;-67
2022/07/17 03:24:27;;;;;;;120.45;114.10;;;;;;;;;;5044519;28;20033;-67
2022/07/17 03:26:52;;;;;;;121.10;115.10;;;;;;;;;;5044467;28;20450;-67
2022/07/17 03:29:18;;;;;;;103.10;98.00;;;;;;;;;;5044051;28;20111;-68
2022/07/17 03:31:44;;;;;;;119.97;113.70;;;;;;;;;;5044730;28;20043;-68
2022/07/17 03:34:10;;;;;;;89.82;85.38;;;;;;;;;;5043399;28;20026;-68
2022/07/17 03:36:35;;;;;;;114.88;109.15;;;;;;;;;;5043636;28;20029;-67
2022/07/17 03:39:00;;;;;;;109.05;103.65;;;;;;;;;;5044611;28;20027;-67
2022/07/17 03:41:26;;;;;;;99.53;94.57;;;;;;;;;;5044063;28;20439;-68
2022/07/17 03:43:51;;;;;;;109.50;104.07;;;;;;;;;;5044849;28;20028;-67
2022/07/17 03:46:17;;;;;;;103.05;97.93;;;;;;;;;;5043549;28;20033;-68
2022/07/17 03:48:42;;;;;;;101.72;96.68;;;;;;;;;;5044082;28;20143;-68
2022/07/17 03:51:07;;;;;;;103.38;98.22;;;;;;;;;;5044835;28;20029;-69
2022/07/17 03:53:33;;;;;;;96.57;91.78;;;;;;;;;;5043976;28;20064;-68
2022/07/17 03:55:58;;;;;;;94.03;89.32;;;;;;;;;;5044847;28;20017;-68
2022/07/17 03:58:23;;;;;;;86.63;82.32;;;;;;;;;;5043912;28;20055;-68
2022/07/17 04:00:49;;;;;;;81.90;77.85;;;;;;;;;;5042751;28;20486;-68
2022/07/17 04:03:14;;;;;;;79.97;76.03;;;;;;;;;;5044165;28;20419;-68
2022/07/17 04:05:39;;;;;;;94.03;89.35;;;;;;;;;;5043808;28;20028;-68
2022/07/17 04:08:05;;;;;;;89.22;84.80;;;;;;;;;;5043059;28;20052;-68
2022/07/17 04:10:30;;;;;;;69.60;66.13;;;;;;;;;;5044094;28;20090;-68
2022/07/17 04:12:56;;;;;;;94.72;90.03;;;;;;;;;;5044316;28;20024;-68
2022/07/17 04:16:03;;;;;;;59.67;56.60;;;;;;;;;;5044530;28;20510;-68
2022/07/17 04:18:10;;;;;;;35.47;33.65;;;;;;;;;;5038306;28;20703;-68
2022/07/17 04:20:35;;;;;;;33.20;31.50;;;;;;;;;;5042954;28;20104;-68
2022/07/17 04:23:00;;;;;;;48.15;45.70;;;;;;;;;;5041638;28;20036;-68
2022/07/17 04:25:26;;;;;;;51.60;49.00;;;;;;;;;;5041967;28;20466;-68
2022/07/17 04:27:51;;;;;;;56.53;53.67;;;;;;;;;;5043358;28;20108;-68
2022/07/17 04:30:16;;;;;;;38.20;36.20;;;;;;;;;;5041901;28;20017;-68
2022/07/17 04:32:42;;;;;;;27.52;26.00;;;;;;;;;;5043072;28;20040;-69
2022/07/17 04:35:07;;;;;;;26.92;25.52;;;;;;;;;;5041728;28;20091;-69
2022/07/17 04:37:33;;;;;;;30.45;28.88;;;;;;;;;;5042069;28;20029;-69
2022/07/17 04:39:58;;;;;;;55.22;52.35;;;;;;;;;;5042612;28;20648;-69
2022/07/17 04:42:23;;;;;;;33.70;31.90;;;;;;;;;;5041998;28;20504;-69
2022/07/17 04:44:49;;;;;;;30.75;28.85;;;;;;;;;;5042131;28;20351;-68
2022/07/17 04:47:14;;;;;;;30.90;29.13;;;;;;;;;;5042112;28;20221;-68
2022/07/17 04:49:39;;;;;;;30.08;28.48;;;;;;;;;;5043538;28;20104;-69
2022/07/17 04:52:05;;;;;;;31.23;29.52;;;;;;;;;;5042426;28;20089;-69
2022/07/17 04:54:30;;;;;;;28.20;26.70;;;;;;;;;;5043455;28;20182;-69
2022/07/17 04:56:55;;;;;;;42.35;40.20;;;;;;;;;;5042498;28;20076;-69
2022/07/17 04:59:21;;;;;;;30.77;29.17;;;;;;;;;;5042072;28;20041;-68
2022/07/17 05:01:46;;;;;;;35.25;33.35;;;;;;;;;;5042374;28;20036;-65
2022/07/17 05:04:11;;;;;;;49.53;47.00;;;;;;;;;;5041792;28;20051;-67
2022/07/17 05:06:37;;;;;;;31.63;29.92;;;;;;;;;;5042597;28;20102;-66
2022/07/17 05:09:02;;;;;;;31.48;29.45;;;;;;;;;;5041519;28;20056;-66
2022/07/17 05:11:27;;;;;;;64.60;61.38;;;;;;;;;;5042476;28;20075;-68
2022/07/17 05:13:53;;;;;;;24.20;22.90;;;;;;;;;;5041711;28;20310;-68
2022/07/17 05:16:18;;;;;;;24.13;22.83;;;;;;;;;;5044317;28;20024;-68
2022/07/17 05:18:43;;;;;;;26.13;24.75;;;;;;;;;;5046175;28;20456;-68
2022/07/17 05:21:09;;;;;;;25.77;24.40;;;;;;;;;;5046270;28;20036;-68
2022/07/17 05:23:34;;;;;;;28.58;27.08;;;;;;;;;;5045218;28;20144;-68
2022/07/17 05:26:00;;;;;;;31.92;30.25;;;;;;;;;;5044753;28;20089;-69
2022/07/17 05:28:25;;;;;;;27.25;25.85;;;;;;;;;;5047373;28;20025;-69
2022/07/17 05:30:50;;;;;;;30.40;28.80;;;;;;;;;;5046723;28;20071;-67
2022/07/17 05:33:16;;;;;;;33.55;31.85;;;;;;;;;;5046557;28;20075;-67
2022/07/17 05:35:41;;;;;;;33.45;31.70;;;;;;;;;;5045469;28;20293;-69
2022/07/17 05:38:06;;;;;;;32.33;30.63;;;;;;;;;;5043799;28;20060;-68
2022/07/17 05:40:32;;;;;;;29.25;27.70;;;;;;;;;;5045744;28;20458;-68
2022/07/17 05:42:58;;;;;;;45.95;43.60;;;;;;;;;;5046837;28;20025;-69
2022/07/17 05:45:23;;;;;;;48.53;46.03;;;;;;;;;;5045981;28;20028;-71
2022/07/17 05:47:49;;;;;;;39.22;37.22;;;;;;;;;;5045428;28;20100;-70
2022/07/17 05:50:14;;;;;;;40.47;38.38;;;;;;;;;;5043126;28;20021;-69
2022/07/17 05:52:39;;;;;;;66.78;63.42;;;;;;;;;;5044595;28;20402;-71
2022/07/17 05:55:05;;;;;;;71.82;68.22;;;;;;;;;;5042879;28;20108;-68
2022/07/17 05:57:30;;;;;;;42.97;40.75;;;;;;;;;;5045343;28;20056;-68
2022/07/17 05:59:56;;;;;;;72.30;68.72;;;;;;;;;;5046443;28;20032;-68
2022/07/17 06:02:21;;;;;;;39.50;37.47;;;;;;;;;;5041746;28;20078;-69
2022/07/17 06:04:46;;;;;;;54.65;51.88;;;;;;;;;;5045901;28;20510;-69
2022/07/17 06:07:12;;;;;;;56.60;53.70;;;;;;;;;;5046376;28;20612;-68
2022/07/17 06:09:37;;;;;;;40.25;38.17;;;;;;;;;;5045762;28;20033;-68
2022/07/17 06:12:03;;;;;;;47.95;45.45;;;;;;;;;;5044757;28;20033;-69
2022/07/17 06:14:28;;;;;;;38.50;36.50;;;;;;;;;;5044441;28;20037;-68
2022/07/17 06:16:53;;;;;;;107.53;102.05;;;;;;;;;;5045856;28;20126;-68
2022/07/17 06:19:19;;;;;;;313.27;297.13;;;;;;;;;;5045948;28;20029;-68
2022/07/17 06:21:44;;;;;;;41.05;38.75;;;;;;;;;;5041060;28;20463;-68
2022/07/17 06:24:09;;;;;;;309.25;293.20;;;;;;;;;;5044740;28;20523;-68
2022/07/17 06:26:35;;;;;;;176.40;167.52;;;;;;;;;;5044353;28;20040;-69
2022/07/17 06:29:00;;;;;;;405.27;384.35;;;;;;;;;;5044521;28;20037;-69
2022/07/17 06:31:26;;;;;;;169.80;161.20;;;;;;;;;;5044180;28;20029;-68
2022/07/17 06:33:51;;;;;;;192.95;183.20;;;;;;;;;;5044928;28;20104;-68
2022/07/17 06:36:16;;;;;;;276.60;262.40;;;;;;;;;;5044338;28;20041;-68
2022/07/17 06:38:42;;;;;;;308.15;292.00;;;;;;;;;;5043730;28;20051;-68
2022/07/17 06:41:07;;;;;;;225.80;214.02;;;;;;;;;;5045486;28;20091;-68
2022/07/17 06:43:32;;;;;;;133.77;127.13;;;;;;;;;;5044909;28;20035;-68
2022/07/17 06:45:58;;;;;;;213.82;203.13;;;;;;;;;;5045207;28;20586;-68
2022/07/17 06:48:23;;;;;;;149.45;141.95;;;;;;;;;;5040679;28;20033;-67
2022/07/17 06:50:49;;;;;;;194.55;184.90;;;;;;;;;;5043446;28;20082;-68
2022/07/17 06:53:14;;;;;;;141.57;134.40;;;;;;;;;;5042535;28;20340;-68
2022/07/17 06:55:40;;;;;;;145.82;138.43;;;;;;;;;;5042418;28;20071;-68
2022/07/17 06:58:05;;;;;;;163.48;155.40;;;;;;;;;;5044549;28;20104;-68
2022/07/17 07:00:31;;;;;;;61.53;58.38;;;;;;;;;;5043156;28;20115;-68
2022/07/17 07:02:56;;;;;;;222.50;211.55;;;;;;;;;;5043651;28;20021;-68
2022/07/17 07:05:22;;;;;;;40.30;38.08;;;;;;;;;;5042611;28;20032;-68
2022/07/17 07:07:47;;;;;;;127.10;120.72;;;;;;;;;;5043063;28;20588;-68
2022/07/17 07:10:13;;;;;;;100.60;95.43;;;;;;;;;;5043538;28;20078;-68
2022/07/17 07:12:38;;;;;;;59.53;56.47;;;;;;;;;;5043064;28;20056;-68
2022/07/17 07:15:04;;;;;;;129.60;123.15;;;;;;;;;;5043199;28;20032;-68
2022/07/17 07:17:31;;;;;;;22.48;21.27;;;;;;;;;;5051276;28;20025;-68
2022/07/17 07:19:57;;;;;;;113.07;107.32;;;;;;;;;;5043327;28;20028;-68
2022/07/17 07:22:23;;;;;;;95.93;91.03;;;;;;;;;;5042484;28;20126;-68
2022/07/17 07:24:48;;;;;;;32.25;30.55;;;;;;;;;;5043446;28;20104;-68
2022/07/17 07:27:14;;;;;;;30.80;29.15;;;;;;;;;;5044566;28;20025;-68
2022/07/17 07:29:39;;;;;;;33.08;31.27;;;;;;;;;;5043702;28;20375;-67
2022/07/17 07:32:04;;;;;;;39.80;37.72;;;;;;;;;;5042605;28;20025;-68
2022/07/17 07:34:30;;;;;;;73.72;69.97;;;;;;;;;;5043900;28;20471;-67
2022/07/17 07:36:55;;;;;;;121.20;115.13;;;;;;;;;;5042866;28;20107;-67
2022/07/17 07:39:21;;;;;;;130.80;124.30;;;;;;;;;;5043298;28;20102;-68
2022/07/17 07:41:46;;;;;;;109.72;104.22;;;;;;;;;;5043575;28;20032;-68
2022/07/17 07:44:12;;;;;;;23.40;22.10;;;;;;;;;;5041820;28;20021;-67
2022/07/17 07:46:37;;;;;;;32.70;30.98;;;;;;;;;;5044097;28;20033;-67
2022/07/17 07:49:03;;;;;;;50.22;47.60;;;;;;;;;;5043802;28;20593;-67
2022/07/17 07:51:29;;;;;;;74.00;70.05;;;;;;;;;;5043763;28;20039;-68
2022/07/17 07:53:54;;;;;;;143.20;136.00;;;;;;;;;;5043959;28;20025;-67
2022/07/17 07:56:20;;;;;;;148.52;141.15;;;;;;;;;;5044492;28;20021;-67
2022/07/17 07:58:45;;;;;;;109.88;104.28;;;;;;;;;;5043708;28;20104;-67
2022/07/17 08:01:10;;;;;;;155.18;147.43;;;;;;;;;;5043786;28;20276;-68
2022/07/17 08:03:36;;;;;;;158.40;150.52;;;;;;;;;;5043073;28;20013;-68
2022/07/17 08:06:01;;;;;;;106.80;101.40;;;;;;;;;;5043587;28;20501;-68
2022/07/17 08:08:26;;;;;;;116.88;109.97;;;;;;;;;;5043751;28;20052;-67
2022/07/17 08:10:52;;;;;;;109.05;103.57;;;;;;;;;;5043204;28;20033;-68
2022/07/17 08:13:17;;;;;;;135.70;128.95;;;;;;;;;;5043920;28;20316;-67
2022/07/17 08:15:42;;;;;;;103.93;98.75;;;;;;;;;;5044064;28;20535;-68
2022/07/17 08:18:08;;;;;;;91.43;86.82;;;;;;;;;;5043886;28;20029;-68
2022/07/17 08:20:33;;;;;;;99.13;94.15;;;;;;;;;;5043318;28;20391;-68
2022/07/17 08:22:59;;;;;;;101.10;96.03;;;;;;;;;;5040368;28;20398;-68
2022/07/17 08:25:24;;;;;;;107.63;102.03;;;;;;;;;;5043637;28;20028;-68
2022/07/17 08:27:49;;;;;;;112.55;106.90;;;;;;;;;;5043342;28;20483;-68
2022/07/17 08:30:15;;;;;;;93.68;89.00;;;;;;;;;;5042932;28;20029;-68
2022/07/17 08:32:42;;;;;;;119.55;113.57;;;;;;;;;;5042711;28;20643;-68
2022/07/17 08:35:08;;;;;;;115.50;109.75;;;;;;;;;;5043677;28;20029;-69
2022/07/17 08:37:47;;;;;;;148.20;140.88;;;;;;;;;;5043249;28;20439;-68
2022/07/17 08:40:25;;;;;;;151.77;144.23;;;;;;;;;;5025469;28;20060;-68
2022/07/17 08:42:51;;;;;;;151.60;144.13;;;;;;;;;;5043732;28;20116;-68
2022/07/17 08:45:17;;;;;;;143.00;135.90;;;;;;;;;;5043441;28;20130;-68
2022/07/17 08:47:43;;;;;;;115.22;109.53;;;;;;;;;;5043076;28;20047;-68
2022/07/17 08:50:10;;;;;;;96.85;92.05;;;;;;;;;;5042877;28;20581;-68
2022/07/17 08:52:38;;;;;;;123.72;117.57;;;;;;;;;;5046362;28;20052;-68
2022/07/17 08:55:04;;;;;;;94.18;89.47;;;;;;;;;;5046472;28;20033;-68
2022/07/17 08:57:30;;;;;;;123.65;117.47;;;;;;;;;;5047282;28;20079;-68
2022/07/17 08:59:55;;;;;;;85.60;81.30;;;;;;;;;;5046423;28;20036;-68
2022/07/17 09:02:21;;;;;;;124.85;118.68;;;;;;;;;;5047151;28;20036;-69
2022/07/17 09:04:53;;;;;;;144.32;137.10;;;;;;;;;;5046717;28;20048;-68
2022/07/17 09:07:19;;;;;;;129.43;123.00;;;;;;;;;;5047043;28;20033;-68
2022/07/17 09:09:51;;;;;;;120.70;114.70;;;;;;;;;;5047655;28;20478;-69
2022/07/17 09:12:16;;;;;;;135.10;128.40;;;;;;;;;;5050064;28;20510;-69
2022/07/17 09:14:41;;;;;;;112.30;106.63;;;;;;;;;;5048947;28;20143;-68
2022/07/17 09:17:09;;;;;;;114.30;108.50;;;;;;;;;;5049354;28;20033;-69
2022/07/17 09:19:36;;;;;;;116.80;111.00;;;;;;;;;;5049029;28;20079;-68
2022/07/17 09:22:18;;;;;;;106.47;101.15;;;;;;;;;;5048303;28;20029;-68
2022/07/17 09:24:56;;;;;;;97.22;92.43;;;;;;;;;;5048915;28;20510;-68
2022/07/17 09:27:24;;;;;;;111.85;106.32;;;;;;;;;;5047960;28;20645;-68
2022/07/17 09:30:03;;;;;;;127.15;120.90;;;;;;;;;;5049759;28;20060;-68
2022/07/17 09:32:33;;;;;;;117.72;111.88;;;;;;;;;;5047915;28;20106;-68
2022/07/17 09:35:00;;;;;;;137.23;130.45;;;;;;;;;;5049030;28;20029;-68
2022/07/17 09:37:28;;;;;;;138.88;132.00;;;;;;;;;;5048822;28;20033;-67
2022/07/17 09:39:54;;;;;;;152.10;144.55;;;;;;;;;;5048651;28;20025;-68
2022/07/17 09:42:27;;;;;;;104.85;99.68;;;;;;;;;;5048788;28;20793;-68
2022/07/17 09:45:08;;;;;;;120.70;114.72;;;;;;;;;;5047872;28;20388;-68
2022/07/17 09:47:37;;;;;;;138.75;131.82;;;;;;;;;;5045646;28;20047;-68
2022/07/17 09:50:05;;;;;;;134.45;127.80;;;;;;;;;;5045424;28;20032;-68
2022/07/17 09:52:32;;;;;;;185.60;176.48;;;;;;;;;;5046988;28;20036;-68
2022/07/17 09:54:59;;;;;;;126.22;119.95;;;;;;;;;;5046713;28;20037;-68
2022/07/17 09:57:30;;;;;;;142.48;135.40;;;;;;;;;;5047224;28;20477;-68
2022/07/17 10:00:02;;;;;;;114.38;108.72;;;;;;;;;;5044952;28;20035;-67
2022/07/17 10:02:28;;;;;;;102.43;97.38;;;;;;;;;;5044869;28;20045;-68
2022/07/17 10:04:53;;;;;;;103.03;97.95;;;;;;;;;;5047323;28;20040;-68
2022/07/17 10:07:21;;;;;;;99.85;94.95;;;;;;;;;;5047884;28;20573;-68
2022/07/17 10:09:47;;;;;;;178.35;169.57;;;;;;;;;;5047538;28;20025;-68
2022/07/17 10:12:14;;;;;;;122.78;116.72;;;;;;;;;;5047419;28;20033;-67
2022/07/17 10:14:41;;;;;;;113.03;107.45;;;;;;;;;;5045110;28;20079;-67
2022/07/17 10:17:11;;;;;;;105.32;100.15;;;;;;;;;;5047059;28;20028;-68
2022/07/17 10:19:46;;;;;;;;;;;;;;;;;;5047397;28;20541;-68
2022/07/17 10:22:11;;;;;;;104.47;99.28;;;;;;;;;;5046921;28;20010;-68
2022/07/17 10:24:45;;;;;;;112.88;107.30;;;;;;;;;;5047189;28;20036;-68
2022/07/17 10:27:20;;;;;;;59.95;56.95;;;;;;;;;;5047728;28;20362;-67
2022/07/17 10:29:46;;;;;;;60.13;57.10;;;;;;;;;;5047769;28;20044;-68
2022/07/17 10:32:18;;;;;;;58.30;55.38;;;;;;;;;;5044883;28;20037;-68
2022/07/17 10:34:45;;;;;;;47.17;44.78;;;;;;;;;;5046363;28;20518;-68
2022/07/17 10:37:15;;;;;;;81.82;77.75;;;;;;;;;;5045615;28;20032;-67
2022/07/17 10:39:50;;;;;;;62.28;59.17;;;;;;;;;;5047069;28;20021;-67
2022/07/17 10:42:38;;;;;;;76.28;72.50;;;;;;;;;;5047328;28;20044;-68
2022/07/17 10:47:58;;;;;;;44.03;41.80;;;;;;;;;;5073449;27;20748;-66
2022/07/17 10:50:28;;;;;;;58.22;55.30;;;;;;;;;;5059444;28;20047;-66
2022/07/17 10:53:06;;;;;;;48.58;46.13;;;;;;;;;;5054581;28;20476;-66
2022/07/17 10:55:33;;;;;;;49.28;46.67;;;;;;;;;;5056185;28;20024;-67
2022/07/17 10:57:59;;;;;;;48.42;45.97;;;;;;;;;;5061827;28;20108;-66
2022/07/17 11:00:25;;;;;;;50.58;48.03;;;;;;;;;;5062798;28;20149;-67
2022/07/17 11:02:52;;;;;;;53.00;50.33;;;;;;;;;;5046991;28;20539;-67
2022/07/17 11:05:17;;;;;;;90.68;86.13;;;;;;;;;;5046695;28;20052;-66
2022/07/17 11:07:56;;;;;;;49.70;47.20;;;;;;;;;;5063711;28;20540;-67
2022/07/17 11:10:25;;;;;;;62.10;58.92;;;;;;;;;;5057953;28;20029;-66
2022/07/17 11:12:51;;;;;;;66.07;62.78;;;;;;;;;;5058711;28;20414;-66
2022/07/17 11:15:17;;;;;;;129.13;122.60;;;;;;;;;;5056580;28;20033;-66
2022/07/17 11:17:47;;;;;;;62.03;58.88;;;;;;;;;;5060079;28;20036;-67
2022/07/17 11:20:13;;;;;;;167.48;159.05;;;;;;;;;;5056882;28;20833;-67
2022/07/17 11:22:39;;;;;;;144.30;137.05;;;;;;;;;;5059533;28;20040;-67
2022/07/17 11:25:05;;;;;;;173.52;164.88;;;;;;;;;;5060617;28;20044;-66
2022/07/17 11:27:31;;;;;;;109.88;104.35;;;;;;;;;;5060822;28;20032;-66
2022/07/17 11:29:59;;;;;;;206.45;196.23;;;;;;;;;;5058171;28;20027;-67
2022/07/17 11:32:31;;;;;;;192.57;182.93;;;;;;;;;;5062346;28;20142;-66
2022/07/17 11:34:56;;;;;;;116.00;110.20;;;;;;;;;;5056602;28;20443;-66
2022/07/17 11:37:23;;;;;;;58.40;55.47;;;;;;;;;;5054658;28;20039;-66
2022/07/17 11:39:50;;;;;;;216.15;205.45;;;;;;;;;;5060434;28;20059;-66
2022/07/17 11:42:20;;;;;;;201.50;191.48;;;;;;;;;;5093668;28;20052;-66
2022/07/17 11:44:48;;;;;;;206.20;195.93;;;;;;;;;;5054945;28;20130;-67
2022/07/17 11:47:21;;;;;;;190.18;180.70;;;;;;;;;;5054814;28;20155;-66
2022/07/17 11:49:46;;;;;;;163.63;155.52;;;;;;;;;;5056508;28;20044;-66
2022/07/17 11:52:18;;;;;;;192.65;182.98;;;;;;;;;;5058658;28;20028;-66
2022/07/17 11:54:55;;;;;;;177.68;168.73;;;;;;;;;;5059533;28;20383;-66
2022/07/17 11:57:22;;;;;;;188.95;179.55;;;;;;;;;;5054618;28;20564;-66
2022/07/17 11:59:49;;;;;;;200.10;190.10;;;;;;;;;;5047164;28;20037;-66
2022/07/17 12:02:21;;;;;;;177.30;168.48;;;;;;;;;;5044300;28;20029;-65
2022/07/17 12:04:57;;;;;;;199.30;189.30;;;;;;;;;;5044817;28;20090;-66
2022/07/17 12:07:38;;;;;;;184.80;175.55;;;;;;;;;;5039628;28;20037;-66
2022/07/17 12:10:15;;;;;;;144.82;137.57;;;;;;;;;;5040013;28;20048;-66
2022/07/17 12:12:58;;;;;;;170.88;162.32;;;;;;;;;;5042744;28;20108;-66
2022/07/17 12:15:41;;;;;;;145.52;138.27;;;;;;;;;;5039257;28;20072;-66
2022/07/17 12:18:18;;;;;;;119.18;113.28;;;;;;;;;;5038877;28;20032;-67
2022/07/17 12:20:46;;;;;;;139.18;132.18;;;;;;;;;;5044080;28;20028;-66
2022/07/17 12:23:36;;;;;;;208.98;198.65;;;;;;;;;;5043211;28;20039;-66
2022/07/17 12:26:12;;;;;;;226.65;215.43;;;;;;;;;;5044059;28;20182;-69
2022/07/17 12:28:38;;;;;;;170.98;162.40;;;;;;;;;;5042763;28;20068;-69
2022/07/17 12:31:04;;;;;;;139.80;132.70;;;;;;;;;;5047085;28;20055;-68
2022/07/17 12:33:29;;;;;;;169.40;160.90;;;;;;;;;;5036932;28;20399;-69
2022/07/17 12:35:55;;;;;;;229.80;218.45;;;;;;;;;;5040261;28;20373;-67
2022/07/17 12:38:20;;;;;;;169.88;161.40;;;;;;;;;;5049683;28;20813;-68
2022/07/17 12:40:46;;;;;;;149.23;141.48;;;;;;;;;;5044085;28;20453;-68
2022/07/17 12:43:11;;;;;;;190.82;181.32;;;;;;;;;;5040467;28;20112;-69
2022/07/17 12:45:37;;;;;;;147.10;139.68;;;;;;;;;;5039728;28;20429;-68
2022/07/17 12:48:02;;;;;;;161.05;152.95;;;;;;;;;;5040052;28;20678;-68
2022/07/17 12:50:28;;;;;;;154.65;146.93;;;;;;;;;;5038548;28;20029;-67
2022/07/17 12:52:53;;;;;;;147.70;140.30;;;;;;;;;;5037256;28;20036;-67
2022/07/17 12:55:19;;;;;;;146.65;139.27;;;;;;;;;;5040925;28;20114;-68
2022/07/17 12:57:44;;;;;;;124.40;118.22;;;;;;;;;;5044527;28;20366;-66
2022/07/17 13:00:11;;;;;;;138.65;131.70;;;;;;;;;;5043378;28;20028;-68
2022/07/17 13:02:36;;;;;;;125.13;118.93;;;;;;;;;;5042556;28;20087;-66
2022/07/17 13:05:02;;;;;;;120.55;114.53;;;;;;;;;;5041621;28;20144;-69
2022/07/17 13:07:27;;;;;;;123.78;117.63;;;;;;;;;;5038794;28;20523;-69
2022/07/17 13:09:53;;;;;;;133.68;127.05;;;;;;;;;;5039668;28;20050;-69
2022/07/17 13:12:19;;;;;;;121.40;115.38;;;;;;;;;;5037996;28;20032;-71
2022/07/17 13:14:44;;;;;;;142.00;134.90;;;;;;;;;;5041505;28;20032;-68
2022/07/17 13:17:09;;;;;;;146.63;139.32;;;;;;;;;;5043123;28;20118;-69
2022/07/17 13:19:35;;;;;;;128.07;121.68;;;;;;;;;;5039305;28;20025;-69
2022/07/17 13:22:03;;;;;;;130.00;123.50;;;;;;;;;;5038556;28;20041;-69
2022/07/17 13:24:29;;;;;;;108.72;103.35;;;;;;;;;;5039972;28;20099;-71
2022/07/17 13:26:55;;;;;;;127.35;121.03;;;;;;;;;;5043336;28;20467;-70
2022/07/17 13:29:20;;;;;;;136.90;130.10;;;;;;;;;;5039867;28;20131;-70
2022/07/17 13:31:46;;;;;;;103.85;98.72;;;;;;;;;;5041799;28;20037;-69
2022/07/17 13:34:12;;;;;;;130.02;123.53;;;;;;;;;;5034998;28;20041;-70
2022/07/17 13:36:37;;;;;;;107.53;102.10;;;;;;;;;;5036940;28;20501;-69
2022/07/17 13:39:03;;;;;;;120.95;114.97;;;;;;;;;;5038597;28;20033;-70
2022/07/17 13:41:30;;;;;;;90.57;86.07;;;;;;;;;;5073570;28;20371;-66
2022/07/17 13:43:56;;;;;;;90.97;86.47;;;;;;;;;;5036214;28;20021;-69
2022/07/17 13:46:21;;;;;;;94.88;90.07;;;;;;;;;;5038575;28;20469;-69
2022/07/17 13:48:47;;;;;;;105.80;100.60;;;;;;;;;;5043530;28;20043;-70
2022/07/17 13:51:13;;;;;;;106.93;101.65;;;;;;;;;;5044886;28;20472;-72
2022/07/17 13:53:39;;;;;;;109.50;104.10;;;;;;;;;;5035782;28;20355;-70
2022/07/17 13:56:04;;;;;;;122.65;116.60;;;;;;;;;;5039802;28;20043;-71
2022/07/17 13:58:32;;;;;;;128.60;122.25;;;;;;;;;;5043502;28;20052;-71
2022/07/17 14:00:58;;;;;;;153.65;146.00;;;;;;;;;;5043839;28;20103;-70
2022/07/17 14:03:23;;;;;;;122.88;116.78;;;;;;;;;;5039998;28;20465;-70